createdAt,value
2019-02-22T00:00:56.380Z,32.70
2019-02-22T00:03:23.896Z,36.03
2019-02-22T00:05:51.410Z,34.00
2019-02-22T00:08:18.931Z,34.00
2019-02-22T00:10:46.434Z,34.37
2019-02-22T00:13:13.930Z,33.57
2019-02-22T00:15:41.455Z,34.33
2019-02-22T00:18:08.957Z,35.37
2019-02-22T00:20:36.718Z,33.17
2019-02-22T00:23:04.174Z,34.23
2019-02-22T00:25:31.693Z,34.03
2019-02-22T00:27:59.043Z,31.87
2019-02-22T00:30:26.396Z,34.03
2019-02-22T00:32:53.921Z,34.77
2019-02-22T00:35:21.251Z,34.60
2019-02-22T00:37:48.648Z,35.77
2019-02-22T00:40:16.073Z,34.07
2019-02-22T00:42:44.563Z,34.57
2019-02-22T00:45:13.119Z,34.03
2019-02-22T00:47:41.405Z,33.67
2019-02-22T00:50:08.752Z,33.20
2019-02-22T00:52:36.102Z,33.50
2019-02-22T00:55:03.715Z,33.13
2019-02-22T00:57:31.224Z,31.93
2019-02-22T00:59:58.707Z,32.20
2019-02-22T01:02:26.096Z,31.87
2019-02-22T01:04:53.583Z,31.30
2019-02-22T01:07:20.982Z,28.73
2019-02-22T01:09:48.328Z,28.60
2019-02-22T01:12:15.680Z,28.77
2019-02-22T01:14:44.275Z,28.30
2019-02-22T01:17:11.759Z,26.57
2019-02-22T01:19:39.185Z,26.57
2019-02-22T01:22:06.903Z,28.33
2019-02-22T01:24:34.345Z,27.60
2019-02-22T01:27:01.670Z,26.50
2019-02-22T01:29:29.104Z,25.80
2019-02-22T01:31:56.562Z,23.93
2019-02-22T01:34:23.980Z,26.20
2019-02-22T01:36:51.462Z,25.60
2019-02-22T01:39:18.859Z,25.37
2019-02-22T01:41:46.805Z,26.53
2019-02-22T01:44:21.241Z,27.40
2019-02-22T01:46:48.626Z,25.90
2019-02-22T01:49:16.018Z,27.10
2019-02-22T01:51:43.635Z,27.73
2019-02-22T01:54:11.063Z,28.23
2019-02-22T01:56:38.491Z,24.90
2019-02-22T01:59:05.926Z,24.87
2019-02-22T02:01:33.323Z,25.33
2019-02-22T02:04:00.669Z,28.90
2019-02-22T02:06:28.114Z,24.77
2019-02-22T02:08:55.520Z,26.73
2019-02-22T02:11:22.843Z,27.67
2019-02-22T02:13:50.461Z,28.03
2019-02-22T02:16:17.822Z,27.47
2019-02-22T02:18:45.941Z,29.47
2019-02-22T02:21:13.418Z,28.33
2019-02-22T02:23:40.776Z,30.60
2019-02-22T02:26:08.126Z,28.60
2019-02-22T02:28:35.533Z,26.60
2019-02-22T02:31:02.934Z,26.93
2019-02-22T02:33:30.495Z,31.80
2019-02-22T02:35:57.956Z,29.87
2019-02-22T02:38:25.332Z,28.13
2019-02-22T02:40:52.763Z,26.17
2019-02-22T02:43:20.203Z,24.57
2019-02-22T02:45:48.136Z,23.90
2019-02-22T02:48:15.588Z,25.87
2019-02-22T02:50:43.055Z,22.33
2019-02-22T02:53:10.490Z,22.20
2019-02-22T02:55:37.865Z,22.63
2019-02-22T02:58:05.283Z,20.00
2019-02-22T03:00:32.694Z,21.47
2019-02-22T03:03:00.044Z,19.93
2019-02-22T03:05:46.666Z,17.57
2019-02-22T03:08:14.087Z,15.97
2019-02-22T03:10:41.403Z,15.57
2019-02-22T03:13:08.848Z,16.33
2019-02-22T03:15:36.239Z,16.07
2019-02-22T03:18:03.757Z,16.80
2019-02-22T03:20:31.165Z,14.23
2019-02-22T03:22:58.579Z,13.73
2019-02-22T03:25:25.901Z,15.40
2019-02-22T03:27:53.350Z,14.27
2019-02-22T03:30:20.766Z,14.00
2019-02-22T03:32:48.205Z,16.33
2019-02-22T03:35:15.608Z,14.13
2019-02-22T03:37:43.061Z,14.70
2019-02-22T03:40:10.457Z,14.37
2019-02-22T03:42:37.849Z,16.13
2019-02-22T03:45:06.155Z,12.90
2019-02-22T03:47:35.308Z,12.90
2019-02-22T03:50:02.603Z,12.80
2019-02-22T03:52:34.174Z,9.60
2019-02-22T03:55:01.633Z,8.20
2019-02-22T03:57:29.038Z,10.33
2019-02-22T03:59:56.296Z,7.90
2019-02-22T04:02:23.779Z,7.63
2019-02-22T04:04:51.076Z,6.20
2019-02-22T04:07:18.418Z,5.47
2019-02-22T04:09:45.815Z,3.73
2019-02-22T04:12:13.207Z,2.00
2019-02-22T04:14:40.548Z,3.83
2019-02-22T04:17:07.974Z,3.67
2019-02-22T04:19:35.327Z,3.03
2019-02-22T04:22:02.753Z,2.70
2019-02-22T04:24:30.141Z,2.17
2019-02-22T04:26:57.551Z,2.00
2019-02-22T04:29:24.861Z,2.53
2019-02-22T04:31:52.240Z,2.13
2019-02-22T04:34:19.575Z,2.37
2019-02-22T04:36:46.917Z,2.70
2019-02-22T04:39:14.268Z,3.50
2019-02-22T04:41:41.673Z,3.03
2019-02-22T04:44:09.133Z,2.03
2019-02-22T04:46:36.612Z,1.60
2019-02-22T04:49:03.950Z,2.90
2019-02-22T04:51:31.343Z,2.20
2019-02-22T04:53:58.786Z,2.37
2019-02-22T04:56:26.252Z,3.80
2019-02-22T04:58:53.670Z,4.13
2019-02-22T05:01:21.085Z,4.37
2019-02-22T05:03:48.442Z,4.53
2019-02-22T05:06:15.900Z,4.00
2019-02-22T05:08:43.202Z,3.93
2019-02-22T05:11:10.894Z,5.77
2019-02-22T05:13:38.266Z,5.53
2019-02-22T05:16:05.715Z,4.13
2019-02-22T05:18:36.054Z,3.47
2019-02-22T05:21:03.412Z,3.20
2019-02-22T05:23:30.767Z,3.83
2019-02-22T05:25:58.659Z,1.37
2019-02-22T05:28:26.089Z,1.37
2019-02-22T05:30:53.521Z,1.63
2019-02-22T05:33:20.965Z,1.30
2019-02-22T05:35:48.296Z,1.43
2019-02-22T05:40:51.829Z,1.70
2019-02-22T05:43:19.184Z,1.50
2019-02-22T05:45:49.185Z,1.50
2019-02-22T05:48:16.512Z,2.03
2019-02-22T05:50:43.967Z,1.93
2019-02-22T05:53:11.366Z,2.10
2019-02-22T05:55:38.686Z,2.33
2019-02-22T05:58:06.123Z,1.83
2019-02-22T06:00:33.491Z,1.63
2019-02-22T06:03:01.049Z,1.80
2019-02-22T06:05:28.513Z,1.40
2019-02-22T06:07:55.951Z,1.70
2019-02-22T06:10:23.345Z,1.80
2019-02-22T06:12:51.354Z,2.10
2019-02-22T06:15:18.715Z,2.20
2019-02-22T06:17:46.109Z,1.30
2019-02-22T06:20:13.708Z,1.20
2019-02-22T06:22:41.049Z,1.73
2019-02-22T06:25:08.452Z,1.10
2019-02-22T06:27:35.781Z,0.80
2019-02-22T06:30:03.567Z,1.50
2019-02-22T06:32:30.989Z,1.20
2019-02-22T06:34:58.346Z,2.03
2019-02-22T06:37:25.711Z,1.63
2019-02-22T06:39:54.592Z,1.47
2019-02-22T06:42:22.016Z,1.93
2019-02-22T06:44:49.337Z,1.73
2019-02-22T06:47:16.930Z,1.57
2019-02-22T06:49:44.615Z,1.77
2019-02-22T06:52:12.065Z,1.87
2019-02-22T06:54:39.462Z,2.00
2019-02-22T06:57:07.079Z,1.90
2019-02-22T06:59:34.397Z,2.57
2019-02-22T07:02:01.776Z,1.77
2019-02-22T07:04:29.200Z,2.70
2019-02-22T07:06:56.553Z,3.03
2019-02-22T07:09:23.878Z,2.57
2019-02-22T07:11:55.699Z,2.83
2019-02-22T07:14:23.159Z,3.63
2019-02-22T07:16:50.619Z,2.37
2019-02-22T07:19:17.932Z,2.60
2019-02-22T07:21:52.821Z,2.40
2019-02-22T07:24:15.916Z,4.07
2019-02-22T07:26:43.234Z,3.10
2019-02-22T07:29:11.504Z,3.67
2019-02-22T07:31:38.947Z,6.03
2019-02-22T07:34:06.359Z,7.00
2019-02-22T07:36:33.713Z,6.53
2019-02-22T07:39:02.767Z,3.30
2019-02-22T07:41:30.099Z,3.33
2019-02-22T07:43:57.454Z,3.03
2019-02-22T07:46:24.828Z,2.20
2019-02-22T07:48:52.144Z,1.97
2019-02-22T07:51:19.574Z,1.70
2019-02-22T07:53:46.979Z,1.97
2019-02-22T07:56:14.490Z,2.13
2019-02-22T07:58:41.946Z,1.87
2019-02-22T08:01:09.487Z,2.40
2019-02-22T08:03:37.524Z,2.90
2019-02-22T08:06:04.931Z,2.93
2019-02-22T08:08:32.325Z,3.60
2019-02-22T08:10:59.605Z,3.47
2019-02-22T08:13:27.096Z,4.40
2019-02-22T08:15:54.530Z,2.73
2019-02-22T08:18:21.958Z,4.40
2019-02-22T08:20:49.569Z,3.80
2019-02-22T08:23:17.224Z,3.83
2019-02-22T08:25:44.612Z,3.70
2019-02-22T08:28:13.284Z,4.70
2019-02-22T08:30:40.661Z,4.70
2019-02-22T08:33:08.109Z,3.97
2019-02-22T08:35:35.509Z,4.23
2019-02-22T08:38:02.886Z,3.43
2019-02-22T08:40:30.182Z,3.83
2019-02-22T08:42:57.668Z,3.87
2019-02-22T08:45:24.977Z,4.37
2019-02-22T08:47:52.289Z,5.33
2019-02-22T08:50:19.678Z,4.70
2019-02-22T08:52:47.066Z,3.67
2019-02-22T08:55:15.716Z,4.93
2019-02-22T08:57:43.120Z,3.00
2019-02-22T09:00:11.391Z,5.03
2019-02-22T09:02:38.745Z,5.13
2019-02-22T09:05:07.060Z,7.03
2019-02-22T09:07:34.451Z,7.33
2019-02-22T09:10:01.779Z,5.70
2019-02-22T09:12:29.153Z,5.33
2019-02-22T09:14:56.806Z,7.23
2019-02-22T09:17:24.133Z,7.77
2019-02-22T09:19:51.646Z,4.40
2019-02-22T09:22:23.002Z,5.57
2019-02-22T09:24:48.190Z,5.30
2019-02-22T09:27:15.829Z,4.07
2019-02-22T09:29:43.256Z,4.10
2019-02-22T09:32:10.692Z,3.30
2019-02-22T09:34:38.164Z,4.33
2019-02-22T09:37:05.511Z,3.43
2019-02-22T09:39:32.836Z,3.30
2019-02-22T09:42:02.108Z,2.67
2019-02-22T09:44:29.418Z,3.70
2019-02-22T09:46:56.953Z,4.07
2019-02-22T09:49:24.468Z,1.77
2019-02-22T09:51:52.741Z,1.60
2019-02-22T09:54:20.481Z,1.60
2019-02-22T09:56:47.798Z,1.67
2019-02-22T09:59:15.237Z,1.37
2019-02-22T10:01:42.574Z,2.00
2019-02-22T10:04:10.014Z,2.43
2019-02-22T10:06:37.457Z,2.47
2019-02-22T10:09:05.146Z,2.57
2019-02-22T10:11:32.532Z,2.97
2019-02-22T10:14:06.664Z,2.93
2019-02-22T10:16:29.038Z,3.00
2019-02-22T10:18:56.422Z,2.30
2019-02-22T10:21:26.170Z,2.43
2019-02-22T10:23:53.509Z,3.23
2019-02-22T10:26:21.543Z,2.60
2019-02-22T10:28:48.922Z,3.77
2019-02-22T10:31:16.252Z,1.83
2019-02-22T10:33:43.644Z,2.93
2019-02-22T10:36:10.931Z,1.70
2019-02-22T10:38:38.697Z,2.30
2019-02-22T10:41:06.120Z,2.73
2019-02-22T10:43:33.501Z,3.30
2019-02-22T10:46:01.054Z,3.47
2019-02-22T10:48:28.416Z,3.27
2019-02-22T10:50:55.827Z,2.93
2019-02-22T10:53:24.985Z,2.40
2019-02-22T10:55:52.295Z,2.00
2019-02-22T10:58:19.629Z,2.40
2019-02-22T11:00:47.125Z,2.57
2019-02-22T11:03:14.468Z,2.33
2019-02-22T11:05:41.788Z,2.00
2019-02-22T11:08:09.158Z,1.50
2019-02-22T11:10:36.532Z,2.10
2019-02-22T11:13:03.898Z,2.77
2019-02-22T11:15:31.239Z,1.97
2019-02-22T11:17:58.556Z,2.03
2019-02-22T11:20:26.162Z,1.73
2019-02-22T11:22:53.521Z,1.97
2019-02-22T11:25:20.892Z,1.60
2019-02-22T11:27:48.262Z,1.50
2019-02-22T11:30:15.727Z,1.60
2019-02-22T11:32:43.046Z,1.57
2019-02-22T11:35:10.420Z,1.40
2019-02-22T11:37:37.947Z,1.50
2019-02-22T11:40:06.653Z,1.53
2019-02-22T11:42:34.123Z,1.83
2019-02-22T11:45:01.513Z,1.83
2019-02-22T11:47:28.975Z,1.00
2019-02-22T11:49:56.357Z,1.63
2019-02-22T11:52:23.831Z,1.73
2019-02-22T11:54:51.148Z,1.50
2019-02-22T11:57:19.579Z,1.67
2019-02-22T11:59:47.136Z,1.63
2019-02-22T12:02:14.491Z,1.30
2019-02-22T12:04:41.921Z,1.83
2019-02-22T12:07:09.353Z,2.20
2019-02-22T12:09:36.656Z,1.00
2019-02-22T12:12:04.068Z,1.30
2019-02-22T12:14:31.465Z,1.23
2019-02-22T12:16:59.139Z,1.17
2019-02-22T12:19:26.517Z,1.57
2019-02-22T12:21:54.065Z,1.53
2019-02-22T12:24:21.407Z,1.57
2019-02-22T12:26:48.755Z,1.20
2019-02-22T12:29:16.197Z,1.17
2019-02-22T12:31:43.648Z,1.50
2019-02-22T12:34:10.955Z,1.13
2019-02-22T12:36:38.428Z,2.00
2019-02-22T12:39:06.738Z,1.70
2019-02-22T12:41:34.130Z,2.47
2019-02-22T12:44:01.464Z,1.40
2019-02-22T12:46:28.870Z,1.30
2019-02-22T12:48:56.233Z,1.73
2019-02-22T12:51:23.606Z,1.37
2019-02-22T12:53:50.941Z,1.60
2019-02-22T12:56:18.371Z,2.00
2019-02-22T12:58:47.077Z,1.67
2019-02-22T13:01:15.515Z,3.70
2019-02-22T13:03:43.789Z,1.97
2019-02-22T13:06:11.199Z,1.53
2019-02-22T13:08:39.879Z,2.07
2019-02-22T13:11:07.344Z,2.37
2019-02-22T13:13:35.063Z,2.20
2019-02-22T13:16:02.475Z,2.03
2019-02-22T13:18:29.804Z,1.87
2019-02-22T13:20:57.191Z,1.97
2019-02-22T13:23:24.567Z,1.77
2019-02-22T13:25:52.955Z,1.97
2019-02-22T13:28:20.336Z,1.10
2019-02-22T13:30:47.763Z,2.10
2019-02-22T13:33:15.291Z,1.53
2019-02-22T13:35:42.727Z,1.90
2019-02-22T13:38:10.132Z,1.80
2019-02-22T13:40:38.359Z,1.70
2019-02-22T13:43:05.768Z,1.77
2019-02-22T13:45:33.101Z,1.90
2019-02-22T13:48:02.573Z,1.00
2019-02-22T13:50:30.000Z,1.33
2019-02-22T13:52:57.390Z,1.80
2019-02-22T13:55:24.825Z,1.30
2019-02-22T13:57:52.144Z,1.17
2019-02-22T14:00:20.113Z,1.50
2019-02-22T14:02:47.681Z,1.60
2019-02-22T14:05:15.222Z,1.30
2019-02-22T14:07:52.590Z,1.20
2019-02-22T14:10:20.062Z,1.03
2019-02-22T14:12:47.383Z,1.40
2019-02-22T14:15:14.831Z,2.27
2019-02-22T14:17:42.295Z,1.30
2019-02-22T14:20:09.645Z,1.40
2019-02-22T14:22:37.065Z,1.00
2019-02-22T14:25:04.689Z,1.10
2019-02-22T14:27:32.194Z,1.60
2019-02-22T14:29:59.529Z,1.57
2019-02-22T14:32:26.866Z,1.23
2019-02-22T14:34:54.226Z,1.70
2019-02-22T14:37:21.878Z,1.53
2019-02-22T14:40:00.118Z,1.57
2019-02-22T14:42:18.394Z,1.63
2019-02-22T14:44:45.918Z,1.40
2019-02-22T14:47:13.346Z,1.67
2019-02-22T14:49:41.028Z,1.53
2019-02-22T14:52:08.381Z,2.20
2019-02-22T14:54:35.729Z,1.17
2019-02-22T14:57:03.131Z,1.60
2019-02-22T14:59:30.548Z,1.37
2019-02-22T15:01:57.866Z,2.10
2019-02-22T15:04:25.218Z,1.70
2019-02-22T15:06:52.612Z,1.80
2019-02-22T15:09:19.987Z,1.23
2019-02-22T15:11:47.601Z,1.27
2019-02-22T15:14:17.850Z,1.63
2019-02-22T15:16:54.772Z,1.43
2019-02-22T15:19:22.335Z,2.83
2019-02-22T15:21:49.797Z,1.40
2019-02-22T15:24:17.286Z,2.00
2019-02-22T15:26:45.007Z,1.90
2019-02-22T15:29:12.735Z,2.13
2019-02-22T15:31:40.068Z,1.87
2019-02-22T15:34:07.477Z,1.60
2019-02-22T15:36:34.892Z,2.10
2019-02-22T15:39:02.462Z,2.10
2019-02-22T15:41:29.817Z,2.13
2019-02-22T15:43:57.157Z,1.70
2019-02-22T15:46:24.467Z,2.13
2019-02-22T15:48:51.853Z,1.87
2019-02-22T15:51:19.168Z,2.00
2019-02-22T15:53:47.076Z,1.77
2019-02-22T15:56:14.503Z,1.70
2019-02-22T15:58:41.918Z,1.87
2019-02-22T16:01:09.726Z,2.70
2019-02-22T16:03:50.971Z,1.53
2019-02-22T16:06:18.362Z,2.57
2019-02-22T16:08:45.759Z,2.10
2019-02-22T16:11:13.145Z,1.57
2019-02-22T16:13:41.176Z,1.90
2019-02-22T16:16:08.802Z,1.50
2019-02-22T16:18:36.198Z,1.77
2019-02-22T16:21:03.539Z,3.90
2019-02-22T16:23:30.964Z,4.30
2019-02-22T16:25:58.298Z,4.17
2019-02-22T16:28:25.669Z,4.13
2019-02-22T16:30:53.147Z,7.13
2019-02-22T16:33:20.477Z,3.23
2019-02-22T16:35:48.026Z,4.77
2019-02-22T16:38:15.409Z,4.83
2019-02-22T16:40:42.850Z,7.57
2019-02-22T16:43:10.195Z,5.47
2019-02-22T16:45:37.506Z,7.07
2019-02-22T16:48:04.901Z,6.73
2019-02-22T16:50:32.284Z,8.37
2019-02-22T16:52:59.964Z,9.13
2019-02-22T16:55:27.590Z,4.60
2019-02-22T16:57:55.067Z,6.90
2019-02-22T17:00:22.599Z,7.37
2019-02-22T17:02:50.100Z,6.83
2019-02-22T17:05:20.742Z,7.37
2019-02-22T17:07:48.074Z,5.67
2019-02-22T17:10:15.533Z,6.97
2019-02-22T17:12:43.822Z,6.00
2019-02-22T17:15:11.841Z,7.37
2019-02-22T17:17:39.245Z,6.67
2019-02-22T17:20:07.877Z,7.53
2019-02-22T17:22:35.273Z,4.30
2019-02-22T17:25:02.657Z,7.00
2019-02-22T17:27:30.168Z,5.20
2019-02-22T17:29:57.717Z,6.87
2019-02-22T17:32:25.124Z,8.73
2019-02-22T17:34:52.648Z,5.73
2019-02-22T17:37:20.037Z,4.67
2019-02-22T17:39:47.676Z,6.40
2019-02-22T17:42:16.768Z,6.40
2019-02-22T17:44:44.227Z,7.93
2019-02-22T17:47:11.722Z,10.20
2019-02-22T17:49:39.219Z,9.30
2019-02-22T17:52:06.617Z,10.03
2019-02-22T17:54:34.151Z,13.07
2019-02-22T17:57:01.639Z,9.07
2019-02-22T17:59:29.112Z,10.77
2019-02-22T18:01:56.724Z,9.63
2019-02-22T18:04:24.058Z,12.43
2019-02-22T18:06:51.432Z,9.60
2019-02-22T18:09:18.876Z,8.93
2019-02-22T18:11:46.278Z,6.93
2019-02-22T18:14:13.702Z,9.40
2019-02-22T18:16:41.091Z,8.83
2019-02-22T18:19:08.455Z,4.93
2019-02-22T18:21:35.857Z,9.60
2019-02-22T18:24:03.329Z,9.53
2019-02-22T18:26:30.778Z,7.77
2019-02-22T18:28:58.251Z,6.60
2019-02-22T18:31:25.850Z,8.20
2019-02-22T18:33:53.283Z,7.87
2019-02-22T18:36:20.626Z,6.60
2019-02-22T18:38:48.122Z,5.93
2019-02-22T18:41:15.516Z,7.47
2019-02-22T18:43:42.851Z,9.07
2019-02-22T18:46:10.251Z,12.00
2019-02-22T18:48:37.583Z,13.07
2019-02-22T18:51:04.979Z,8.63
2019-02-22T18:53:32.419Z,11.03
2019-02-22T18:55:59.768Z,12.60
2019-02-22T18:58:27.201Z,9.33
2019-02-22T19:00:54.662Z,7.03
2019-02-22T19:03:22.076Z,10.90
2019-02-22T19:05:49.506Z,11.73
2019-02-22T19:08:16.857Z,7.83
2019-02-22T19:10:44.209Z,7.57
2019-02-22T19:13:11.604Z,10.23
2019-02-22T19:15:39.061Z,8.20
2019-02-22T19:18:08.639Z,6.40
2019-02-22T19:20:36.020Z,9.60
2019-02-22T19:23:03.441Z,10.03
2019-02-22T19:25:30.795Z,10.33
2019-02-22T19:27:58.267Z,9.07
2019-02-22T19:30:25.673Z,6.80
2019-02-22T19:32:53.156Z,6.03
2019-02-22T19:35:20.631Z,6.90
2019-02-22T19:37:47.983Z,6.83
2019-02-22T19:40:16.873Z,8.20
2019-02-22T19:42:44.415Z,7.37
2019-02-22T19:45:11.854Z,9.47
2019-02-22T19:47:42.199Z,8.60
2019-02-22T19:50:09.893Z,7.60
2019-02-22T19:52:37.327Z,7.27
2019-02-22T19:55:06.327Z,6.47
2019-02-22T19:57:33.766Z,9.07
2019-02-22T20:00:01.145Z,9.90
2019-02-22T20:02:28.590Z,8.50
2019-02-22T20:04:55.927Z,7.30
2019-02-22T20:07:23.358Z,10.97
2019-02-22T20:09:50.786Z,8.27
2019-02-22T20:12:18.321Z,8.63
2019-02-22T20:14:45.780Z,10.57
2019-02-22T20:17:13.308Z,14.70
2019-02-22T20:19:40.814Z,13.93
2019-02-22T20:22:10.873Z,14.73
2019-02-22T20:24:37.427Z,14.63
2019-02-22T20:27:04.929Z,15.77
2019-02-22T20:29:32.387Z,12.63
2019-02-22T20:31:59.787Z,12.90
2019-02-22T20:34:27.191Z,12.00
2019-02-22T20:36:54.648Z,12.10
2019-02-22T20:39:22.085Z,14.87
2019-02-22T20:41:49.610Z,16.37
2019-02-22T20:44:17.125Z,11.87
2019-02-22T20:46:44.485Z,16.03
2019-02-22T20:49:12.026Z,14.53
2019-02-22T20:51:39.507Z,15.13
2019-02-22T20:54:06.965Z,9.70
2019-02-22T20:56:34.409Z,9.73
2019-02-22T20:59:01.811Z,7.87
2019-02-22T21:01:29.471Z,8.97
2019-02-22T21:03:56.878Z,12.33
2019-02-22T21:06:24.310Z,14.20
2019-02-22T21:08:51.735Z,10.27
2019-02-22T21:11:19.189Z,11.93
2019-02-22T21:13:47.192Z,10.93
2019-02-22T21:16:14.660Z,9.43
2019-02-22T21:18:42.003Z,11.77
2019-02-22T21:21:09.515Z,9.47
2019-02-22T21:23:37.015Z,9.97
2019-02-22T21:26:04.487Z,9.17
2019-02-22T21:28:31.924Z,10.00
2019-02-22T21:30:59.388Z,12.33
2019-02-22T21:33:26.799Z,11.50
2019-02-22T21:35:54.199Z,9.67
2019-02-22T21:38:21.561Z,7.73
2019-02-22T21:40:48.987Z,8.50
2019-02-22T21:43:16.380Z,5.90
2019-02-22T21:45:43.714Z,6.97
2019-02-22T21:48:11.188Z,7.10
2019-02-22T21:50:38.620Z,6.83
2019-02-22T21:53:06.075Z,9.17
2019-02-22T21:55:33.397Z,8.87
2019-02-22T21:58:00.826Z,11.60
2019-02-22T22:00:29.885Z,7.07
2019-02-22T22:02:57.280Z,9.77
2019-02-22T22:05:24.702Z,11.17
2019-02-22T22:07:52.074Z,9.17
2019-02-22T22:10:19.480Z,11.20
2019-02-22T22:12:46.912Z,10.77
2019-02-22T22:15:14.778Z,11.27
2019-02-22T22:17:42.156Z,10.67
2019-02-22T22:20:09.857Z,10.83
2019-02-22T22:22:37.222Z,10.43
2019-02-22T22:25:05.597Z,12.87
2019-02-22T22:27:32.991Z,12.23
2019-02-22T22:30:00.451Z,12.70
2019-02-22T22:32:28.153Z,12.73
2019-02-22T22:34:55.624Z,13.00
2019-02-22T22:37:22.945Z,14.07
2019-02-22T22:39:50.294Z,14.63
2019-02-22T22:42:17.671Z,12.57
2019-02-22T22:44:44.986Z,13.20
2019-02-22T22:47:12.400Z,11.80
2019-02-22T22:49:39.832Z,12.33
2019-02-22T22:52:07.239Z,14.53
2019-02-22T22:54:34.627Z,13.00
2019-02-22T22:57:01.953Z,12.27
2019-02-22T22:59:29.294Z,13.63
2019-02-22T23:01:57.773Z,13.77
2019-02-22T23:04:25.209Z,14.63
2019-02-22T23:06:52.544Z,12.50
2019-02-22T23:09:21.534Z,12.33
2019-02-22T23:11:48.900Z,11.13
2019-02-22T23:14:16.671Z,13.10
2019-02-22T23:16:44.010Z,10.10
2019-02-22T23:19:11.339Z,11.13
2019-02-22T23:21:38.701Z,11.20
2019-02-22T23:24:06.067Z,10.87
2019-02-22T23:26:33.423Z,9.63
2019-02-22T23:29:01.923Z,9.23
2019-02-22T23:31:29.494Z,11.23
2019-02-22T23:33:56.875Z,9.37
2019-02-22T23:36:24.186Z,9.13
2019-02-22T23:38:51.542Z,10.60
2019-02-22T23:41:19.147Z,10.33
2019-02-22T23:43:46.530Z,9.07
2019-02-22T23:46:13.873Z,11.27
2019-02-22T23:48:41.273Z,11.87
2019-02-22T23:51:08.696Z,11.53
2019-02-22T23:53:36.039Z,11.97
2019-02-22T23:56:03.403Z,12.43
2019-02-22T23:58:30.885Z,10.20
